Time,TemperatureF,DewpointF,PressureIn,WindDirection,WindDirectionDegrees,WindSpeedMPH,WindSpeedGustMPH,Humidity,HourlyPrecipIn,Conditions,Clouds,dailyrainin,SolarRadiationWatts/m^2,SoftwareType,DateUTC
2013-02-07 00:21:00,40.0,25.0,-100.00,SSW,203,4.0,14.0,54,0.00,,,0.00,184.000000,,2013-02-07 00:21:00,
2013-02-07 00:31:00,40.0,25.0,-100.00,SSW,203,4.0,14.0,54,0.00,,,0.00,184.000000,,2013-02-07 00:31:00,
2013-02-07 00:41:00,40.0,25.0,-100.00,SSW,203,4.0,14.0,54,0.00,,,0.00,184.000000,,2013-02-07 00:41:00,
2013-02-07 00:51:00,40.0,25.0,-100.00,SSW,203,4.0,14.0,54,0.00,,,0.00,184.000000,,2013-02-07 00:51:00,
2013-02-07 01:21:00,39.0,25.0,-100.00,South,178,5.0,8.0,57,0.00,,,0.00,130.000000,,2013-02-07 01:21:00,
2013-02-07 01:31:00,39.0,25.0,-100.00,South,178,5.0,8.0,57,0.00,,,0.00,130.000000,,2013-02-07 01:31:00,
2013-02-07 01:41:00,39.0,25.0,-100.00,South,178,5.0,8.0,57,0.00,,,0.00,130.000000,,2013-02-07 01:41:00,
2013-02-07 01:52:00,39.0,25.0,-100.00,South,178,5.0,8.0,57,0.00,,,0.00,130.000000,,2013-02-07 01:52:00,
2013-02-07 02:21:00,37.0,26.0,-100.00,South,178,2.0,10.0,63,0.00,,,-99.99,12.000000,,2013-02-07 02:21:00,
2013-02-07 02:31:00,37.0,26.0,-100.00,South,178,2.0,10.0,63,0.00,,,-99.99,12.000000,,2013-02-07 02:31:00,
2013-02-07 02:41:00,37.0,26.0,-100.00,South,178,2.0,10.0,63,0.00,,,-99.99,12.000000,,2013-02-07 02:41:00,
2013-02-07 02:51:00,37.0,26.0,-100.00,South,178,2.0,10.0,63,0.00,,,-99.99,12.000000,,2013-02-07 02:51:00,
2013-02-07 03:21:00,35.0,26.0,-100.00,WSW,237,4.0,10.0,68,0.00,,,0.00,1.000000,,2013-02-07 03:21:00,
2013-02-07 03:31:00,35.0,26.0,-100.00,WSW,237,4.0,10.0,68,0.00,,,0.00,1.000000,,2013-02-07 03:31:00,
2013-02-07 03:41:00,35.0,26.0,-100.00,WSW,237,4.0,10.0,68,0.00,,,0.00,1.000000,,2013-02-07 03:41:00,
2013-02-07 03:51:00,35.0,26.0,-100.00,WSW,237,4.0,10.0,68,0.00,,,0.00,1.000000,,2013-02-07 03:51:00,
2013-02-07 04:22:00,32.0,24.0,-100.00,NW,304,7.0,10.0,72,0.00,,,0.00,1.000000,,2013-02-07 04:22:00,
2013-02-07 04:31:00,32.0,24.0,-100.00,NW,304,7.0,10.0,72,0.00,,,0.00,1.000000,,2013-02-07 04:31:00,
2013-02-07 04:41:00,32.0,24.0,-100.00,NW,304,7.0,10.0,72,0.00,,,0.00,1.000000,,2013-02-07 04:41:00,
2013-02-07 05:21:00,32.0,26.0,-100.00,SW,226,3.0,8.0,77,0.00,,,0.00,1.000000,,2013-02-07 05:21:00,
2013-02-07 05:32:00,32.0,26.0,-100.00,SW,226,3.0,8.0,77,0.00,,,0.00,1.000000,,2013-02-07 05:32:00,
2013-02-07 05:42:00,32.0,26.0,-100.00,SW,226,3.0,8.0,77,0.00,,,0.00,1.000000,,2013-02-07 05:42:00,
2013-02-07 05:52:00,32.0,26.0,-100.00,SW,226,3.0,8.0,77,0.00,,,0.00,1.000000,,2013-02-07 05:52:00,
2013-02-07 06:22:00,32.0,26.0,-100.00,South,179,3.0,6.0,78,0.00,,,0.00,1.000000,,2013-02-07 06:22:00,
2013-02-07 06:31:00,32.0,26.0,-100.00,South,179,3.0,6.0,78,0.00,,,0.00,1.000000,,2013-02-07 06:31:00,
2013-02-07 06:43:00,32.0,26.0,-100.00,South,179,3.0,6.0,78,0.00,,,0.00,1.000000,,2013-02-07 06:43:00,
2013-02-07 06:52:00,32.0,26.0,-100.00,South,179,3.0,6.0,78,0.00,,,0.00,1.000000,,2013-02-07 06:52:00,
2013-02-07 07:22:00,32.0,26.0,-100.00,SSE,165,3.0,8.0,79,0.00,,,0.00,1.000000,,2013-02-07 07:22:00,
2013-02-07 07:31:00,32.0,26.0,-100.00,SSE,165,3.0,8.0,79,0.00,,,0.00,1.000000,,2013-02-07 07:31:00,
2013-02-07 07:41:00,32.0,26.0,-100.00,SSE,165,3.0,8.0,79,0.00,,,0.00,1.000000,,2013-02-07 07:41:00,
2013-02-07 07:52:00,32.0,26.0,-100.00,SSE,165,3.0,8.0,79,0.00,,,0.00,1.000000,,2013-02-07 07:52:00,
2013-02-07 08:21:00,33.0,26.0,-100.00,SSW,196,5.0,9.0,74,0.00,,,0.00,1.000000,,2013-02-07 08:21:00,
2013-02-07 08:31:00,33.0,26.0,-100.00,SSW,196,5.0,9.0,74,0.00,,,0.00,1.000000,,2013-02-07 08:31:00,
2013-02-07 08:41:00,33.0,26.0,-100.00,SSW,196,5.0,9.0,74,0.00,,,0.00,1.000000,,2013-02-07 08:41:00,
2013-02-07 08:52:00,33.0,26.0,-100.00,SSW,196,5.0,9.0,74,0.00,,,0.00,1.000000,,2013-02-07 08:52:00,
2013-02-07 09:21:00,34.0,24.0,-100.00,South,184,7.0,16.0,67,0.00,,,0.00,1.000000,,2013-02-07 09:21:00,
2013-02-07 09:31:00,34.0,24.0,-100.00,South,184,7.0,16.0,67,0.00,,,0.00,1.000000,,2013-02-07 09:31:00,
2013-02-07 09:41:00,34.0,24.0,-100.00,South,184,7.0,16.0,67,0.00,,,0.00,1.000000,,2013-02-07 09:41:00,
2013-02-07 09:51:00,34.0,24.0,-100.00,South,184,7.0,16.0,67,0.00,,,0.00,1.000000,,2013-02-07 09:51:00,
2013-02-07 10:22:00,34.0,23.0,-100.00,South,185,7.0,13.0,63,0.00,,,0.00,1.000000,,2013-02-07 10:22:00,
2013-02-07 10:31:00,34.0,23.0,-100.00,South,185,7.0,13.0,63,0.00,,,0.00,1.000000,,2013-02-07 10:31:00,
2013-02-07 10:41:00,34.0,23.0,-100.00,South,185,7.0,13.0,63,0.00,,,0.00,1.000000,,2013-02-07 10:41:00,
2013-02-07 10:51:00,34.0,23.0,-100.00,South,185,7.0,13.0,63,0.00,,,0.00,1.000000,,2013-02-07 10:51:00,
2013-02-07 11:22:00,33.0,24.0,-100.00,WSW,248,6.0,12.0,69,0.00,,,0.00,1.000000,,2013-02-07 11:22:00,
2013-02-07 11:32:00,33.0,24.0,-100.00,WSW,248,6.0,12.0,69,0.00,,,0.00,1.000000,,2013-02-07 11:32:00,
2013-02-07 11:44:00,33.0,24.0,-100.00,WSW,248,6.0,12.0,69,0.00,,,0.00,1.000000,,2013-02-07 11:44:00,
2013-02-07 11:52:00,33.0,24.0,-100.00,WSW,248,6.0,12.0,69,0.00,,,0.00,1.000000,,2013-02-07 11:52:00,
2013-02-07 12:22:00,31.0,27.0,-100.00,WSW,243,10.0,16.0,85,0.00,,,0.00,1.000000,,2013-02-07 12:22:00,
2013-02-07 12:32:00,31.0,27.0,-100.00,WSW,243,10.0,16.0,85,0.00,,,0.00,1.000000,,2013-02-07 12:32:00,
2013-02-07 12:42:00,31.0,27.0,-100.00,WSW,243,10.0,16.0,85,0.00,,,0.00,1.000000,,2013-02-07 12:42:00,
2013-02-07 12:52:00,31.0,27.0,-100.00,WSW,243,10.0,16.0,85,0.00,,,0.00,1.000000,,2013-02-07 12:52:00,
2013-02-07 13:22:00,30.0,27.0,-100.00,South,178,3.0,15.0,89,0.00,,,0.00,1.000000,,2013-02-07 13:22:00,
2013-02-07 13:32:00,30.0,27.0,-100.00,South,178,3.0,15.0,89,0.00,,,0.00,1.000000,,2013-02-07 13:32:00,
2013-02-07 13:42:00,30.0,27.0,-100.00,South,178,3.0,15.0,89,0.00,,,0.00,1.000000,,2013-02-07 13:42:00,
2013-02-07 13:51:00,30.0,27.0,-100.00,South,178,3.0,15.0,89,0.00,,,0.00,1.000000,,2013-02-07 13:51:00,
2013-02-07 14:21:00,30.0,24.0,-100.00,West,265,8.0,17.0,78,0.00,,,0.00,1.000000,,2013-02-07 14:21:00,
2013-02-07 14:32:00,30.0,24.0,-100.00,West,265,8.0,17.0,78,0.00,,,0.00,1.000000,,2013-02-07 14:32:00,
2013-02-07 14:41:00,30.0,24.0,-100.00,West,265,8.0,17.0,78,0.00,,,0.00,1.000000,,2013-02-07 14:41:00,
2013-02-07 14:52:00,30.0,24.0,-100.00,West,265,8.0,17.0,78,0.00,,,0.00,1.000000,,2013-02-07 14:52:00,
2013-02-07 15:22:00,29.0,21.0,-100.00,West,265,9.0,17.0,71,0.00,,,0.00,1.000000,,2013-02-07 15:22:00,
2013-02-07 15:32:00,29.0,21.0,-100.00,West,265,9.0,17.0,71,0.00,,,0.00,1.000000,,2013-02-07 15:32:00,
2013-02-07 15:42:00,29.0,21.0,-100.00,West,265,9.0,17.0,71,0.00,,,0.00,1.000000,,2013-02-07 15:42:00,
2013-02-07 15:52:00,29.0,21.0,-100.00,West,265,9.0,17.0,71,0.00,,,0.00,1.000000,,2013-02-07 15:52:00,
2013-02-07 16:21:00,28.0,21.0,-100.00,SW,229,6.0,18.0,74,0.00,,,0.00,5.000000,,2013-02-07 16:21:00,
2013-02-07 16:31:00,28.0,21.0,-100.00,SW,229,6.0,18.0,74,0.00,,,0.00,5.000000,,2013-02-07 16:31:00,
2013-02-07 16:41:00,28.0,21.0,-100.00,SW,229,6.0,18.0,74,0.00,,,0.00,5.000000,,2013-02-07 16:41:00,
2013-02-07 16:52:00,28.0,21.0,-100.00,SW,229,6.0,18.0,74,0.00,,,0.00,5.000000,,2013-02-07 16:52:00,
2013-02-07 17:21:00,33.0,24.0,-100.00,South,183,3.0,7.0,69,0.00,,,0.00,114.000000,,2013-02-07 17:21:00,
2013-02-07 17:31:00,33.0,24.0,-100.00,South,183,3.0,7.0,69,0.00,,,0.00,114.000000,,2013-02-07 17:31:00,
2013-02-07 17:42:00,33.0,24.0,-100.00,South,183,3.0,7.0,69,0.00,,,0.00,114.000000,,2013-02-07 17:42:00,
2013-02-07 17:52:00,33.0,24.0,-100.00,South,183,3.0,7.0,69,0.00,,,0.00,114.000000,,2013-02-07 17:52:00,
2013-02-07 18:23:00,32.0,20.0,-100.00,WSW,240,6.0,10.0,61,0.00,,,0.00,231.000000,,2013-02-07 18:23:00,
2013-02-07 18:31:00,32.0,20.0,-100.00,WSW,240,6.0,10.0,61,0.00,,,0.00,231.000000,,2013-02-07 18:31:00,
2013-02-07 18:41:00,32.0,20.0,-100.00,WSW,240,6.0,10.0,61,0.00,,,0.00,231.000000,,2013-02-07 18:41:00,
2013-02-07 18:51:00,32.0,20.0,-100.00,WSW,240,6.0,10.0,61,0.00,,,0.00,231.000000,,2013-02-07 18:51:00,
2013-02-07 19:22:00,36.0,19.0,-100.00,WSW,256,6.0,12.0,50,0.00,,,0.00,236.000000,,2013-02-07 19:22:00,
2013-02-07 19:31:00,36.0,19.0,-100.00,WSW,256,6.0,12.0,50,0.00,,,0.00,236.000000,,2013-02-07 19:31:00,
2013-02-07 19:41:00,36.0,19.0,-100.00,WSW,256,6.0,12.0,50,0.00,,,0.00,236.000000,,2013-02-07 19:41:00,
2013-02-07 19:51:00,36.0,19.0,-100.00,WSW,256,6.0,12.0,50,0.00,,,0.00,236.000000,,2013-02-07 19:51:00,
2013-02-07 20:21:00,38.0,21.0,-100.00,WSW,253,8.0,12.0,49,0.00,,,0.00,550.000000,,2013-02-07 20:21:00,
2013-02-07 20:31:00,38.0,21.0,-100.00,WSW,253,8.0,12.0,49,0.00,,,0.00,550.000000,,2013-02-07 20:31:00,
2013-02-07 20:41:00,38.0,21.0,-100.00,WSW,253,8.0,12.0,49,0.00,,,0.00,550.000000,,2013-02-07 20:41:00,
2013-02-07 20:52:00,38.0,21.0,-100.00,WSW,253,8.0,12.0,49,0.00,,,0.00,550.000000,,2013-02-07 20:52:00,
2013-02-07 21:21:00,38.0,21.0,-100.00,WSW,237,8.0,14.0,49,0.00,,,0.00,651.000000,,2013-02-07 21:21:00,
2013-02-07 21:31:00,38.0,21.0,-100.00,WSW,237,8.0,14.0,49,0.00,,,0.00,651.000000,,2013-02-07 21:31:00,
2013-02-07 21:42:00,38.0,21.0,-100.00,WSW,237,8.0,14.0,49,0.00,,,0.00,651.000000,,2013-02-07 21:42:00,
2013-02-07 21:51:00,38.0,21.0,-100.00,WSW,237,8.0,14.0,49,0.00,,,0.00,651.000000,,2013-02-07 21:51:00,
2013-02-07 22:21:00,41.0,19.0,-100.00,WSW,250,5.0,13.0,41,0.00,,,0.00,665.000000,,2013-02-07 22:21:00,
2013-02-07 22:31:00,41.0,19.0,-100.00,WSW,250,5.0,13.0,41,0.00,,,0.00,665.000000,,2013-02-07 22:31:00,
2013-02-07 22:42:00,41.0,19.0,-100.00,WSW,250,5.0,13.0,41,0.00,,,0.00,665.000000,,2013-02-07 22:42:00,
2013-02-07 22:51:00,41.0,19.0,-100.00,WSW,250,5.0,13.0,41,0.00,,,0.00,665.000000,,2013-02-07 22:51:00,
2013-02-07 23:21:00,39.0,17.0,-100.00,WNW,285,7.0,13.0,41,0.00,,,0.00,503.000000,,2013-02-07 23:21:00,
2013-02-07 23:31:00,39.0,17.0,-100.00,WNW,285,7.0,13.0,41,0.00,,,0.00,503.000000,,2013-02-07 23:31:00,
2013-02-07 23:41:00,39.0,17.0,-100.00,WNW,285,7.0,13.0,41,0.00,,,0.00,503.000000,,2013-02-07 23:41:00,
2013-02-07 23:52:00,39.0,17.0,-100.00,WNW,285,7.0,13.0,41,0.00,,,0.00,503.000000,,2013-02-07 23:52:00,